createdAt,value
2023-09-29T00:00:24.335Z,77.86
2023-09-29T00:01:24.386Z,77.25
2023-09-29T00:02:24.357Z,77.31
2023-09-29T00:03:24.437Z,77.41
2023-09-29T00:04:24.323Z,77.55
2023-09-29T00:05:24.319Z,78.02
2023-09-29T00:06:24.271Z,78.30
2023-09-29T00:07:24.260Z,77.96
2023-09-29T00:08:24.357Z,78.37
2023-09-29T00:09:24.246Z,78.37
2023-09-29T00:10:24.250Z,78.88
2023-09-29T00:11:24.328Z,77.96
2023-09-29T00:12:24.204Z,78.37
2023-09-29T00:13:24.194Z,77.45
2023-09-29T00:14:24.292Z,76.93
2023-09-29T00:15:24.207Z,77.04
2023-09-29T00:16:24.170Z,77.25
2023-09-29T00:17:24.171Z,77.14
2023-09-29T00:18:24.313Z,76.73
2023-09-29T00:19:24.161Z,76.93
2023-09-29T00:20:24.134Z,77.25
2023-09-29T00:21:24.129Z,77.04
2023-09-29T00:22:24.108Z,77.65
2023-09-29T00:23:24.102Z,77.55
2023-09-29T00:24:24.090Z,77.65
2023-09-29T00:25:24.060Z,77.55
2023-09-29T00:26:24.181Z,77.86
2023-09-29T00:27:24.053Z,77.55
2023-09-29T00:28:24.029Z,78.37
2023-09-29T00:29:24.027Z,76.93
2023-09-29T00:30:24.081Z,76.73
2023-09-29T00:31:24.069Z,77.34
2023-09-29T00:32:24.011Z,76.39
2023-09-29T00:33:24.033Z,75.98
2023-09-29T00:34:23.958Z,76.84
2023-09-29T00:35:23.986Z,76.32
2023-09-29T00:36:23.950Z,77.04
2023-09-29T00:37:23.931Z,77.65
2023-09-29T00:38:23.996Z,77.55
2023-09-29T00:39:23.940Z,77.25
2023-09-29T00:40:23.896Z,77.38
2023-09-29T00:41:24.030Z,76.84
2023-09-29T00:42:23.892Z,76.93
2023-09-29T00:43:23.862Z,77.25
2023-09-29T00:44:23.881Z,76.84
2023-09-29T00:45:24.067Z,77.14
2023-09-29T00:46:23.880Z,77.25
2023-09-29T00:47:23.834Z,76.93
2023-09-29T00:48:24.133Z,76.32
2023-09-29T00:49:23.796Z,76.06
2023-09-29T00:50:23.836Z,76.12
2023-09-29T00:51:23.808Z,76.02
2023-09-29T00:52:23.765Z,77.04
2023-09-29T00:53:23.796Z,77.45
2023-09-29T00:54:23.742Z,77.14
2023-09-29T00:55:23.732Z,76.93
2023-09-29T00:56:23.756Z,76.87
2023-09-29T00:57:23.740Z,77.14
2023-09-29T00:58:23.700Z,77.04
2023-09-29T00:59:23.691Z,76.56
2023-09-29T01:00:23.679Z,76.46
2023-09-29T01:01:23.720Z,76.56
2023-09-29T01:02:23.737Z,76.22
2023-09-29T01:03:24.058Z,76.12
2023-09-29T01:04:23.678Z,76.63
2023-09-29T01:05:23.679Z,77.08
2023-09-29T01:06:23.617Z,77.25
2023-09-29T01:07:23.607Z,76.36
2023-09-29T01:08:23.632Z,76.63
2023-09-29T01:09:23.594Z,76.84
2023-09-29T01:10:23.588Z,76.73
2023-09-29T01:11:23.610Z,76.84
2023-09-29T01:12:23.553Z,77.25
2023-09-29T01:13:23.545Z,77.38
2023-09-29T01:14:23.644Z,76.63
2023-09-29T01:15:23.581Z,77.04
2023-09-29T01:16:23.561Z,76.56
2023-09-29T01:17:23.599Z,76.77
2023-09-29T01:18:23.589Z,76.87
2023-09-29T01:19:23.481Z,77.55
2023-09-29T01:20:23.554Z,77.48
2023-09-29T01:21:23.462Z,77.08
2023-09-29T01:22:23.462Z,76.84
2023-09-29T01:23:23.444Z,76.84
2023-09-29T01:24:23.424Z,76.77
2023-09-29T01:25:23.425Z,76.43
2023-09-29T01:26:23.414Z,76.56
2023-09-29T01:27:23.411Z,77.14
2023-09-29T01:28:23.377Z,77.89
2023-09-29T01:29:23.436Z,78.20
2023-09-29T01:30:23.359Z,78.20
2023-09-29T01:31:23.394Z,78.09
2023-09-29T01:32:23.406Z,78.20
2023-09-29T01:33:23.401Z,78.00
2023-09-29T01:34:23.357Z,78.20
2023-09-29T01:35:23.358Z,77.69
2023-09-29T01:36:23.295Z,77.28
2023-09-29T01:37:23.294Z,78.09
2023-09-29T01:38:23.315Z,77.69
2023-09-29T01:39:23.273Z,77.52
2023-09-29T01:40:23.252Z,77.08
2023-09-29T01:41:23.297Z,77.38
2023-09-29T01:42:23.224Z,76.97
2023-09-29T01:43:23.219Z,77.04
2023-09-29T01:44:23.252Z,76.77
2023-09-29T01:45:23.197Z,76.26
2023-09-29T01:46:23.197Z,75.92
2023-09-29T01:47:23.321Z,76.77
2023-09-29T01:48:23.327Z,76.77
2023-09-29T01:49:23.355Z,76.84
2023-09-29T01:50:23.229Z,76.97
2023-09-29T01:51:23.195Z,77.59
2023-09-29T01:52:23.120Z,77.48
2023-09-29T01:53:23.108Z,77.28
2023-09-29T01:54:23.095Z,77.28
2023-09-29T01:55:23.092Z,76.56
2023-09-29T01:56:23.140Z,76.46
2023-09-29T01:57:23.068Z,76.53
2023-09-29T01:58:23.074Z,76.32
2023-09-29T01:59:23.051Z,76.32
2023-09-29T02:00:23.027Z,76.32
2023-09-29T02:01:23.057Z,76.87
2023-09-29T02:02:23.063Z,76.53
2023-09-29T02:03:23.082Z,76.22
2023-09-29T02:04:23.009Z,76.67
2023-09-29T02:05:23.018Z,76.77
2023-09-29T02:06:23.090Z,76.06
2023-09-29T02:07:22.962Z,77.34
2023-09-29T02:08:22.944Z,77.38
2023-09-29T02:09:22.965Z,76.97
2023-09-29T02:10:22.929Z,76.87
2023-09-29T02:11:22.910Z,76.77
2023-09-29T02:12:22.943Z,76.84
2023-09-29T02:13:22.904Z,76.77
2023-09-29T02:14:22.866Z,77.38
2023-09-29T02:15:22.872Z,77.08
2023-09-29T02:16:22.849Z,77.28
2023-09-29T02:17:22.845Z,77.79
2023-09-29T02:18:22.996Z,77.72
2023-09-29T02:19:22.858Z,78.09
2023-09-29T02:20:22.818Z,78.41
2023-09-29T02:21:22.824Z,78.00
2023-09-29T02:22:23.176Z,78.09
2023-09-29T02:23:22.759Z,78.20
2023-09-29T02:24:22.757Z,78.20
2023-09-29T02:25:22.739Z,78.20
2023-09-29T02:26:22.737Z,78.23
2023-09-29T02:27:22.735Z,78.85
2023-09-29T02:28:22.715Z,78.13
2023-09-29T02:29:22.686Z,79.25
2023-09-29T02:30:22.682Z,79.36
2023-09-29T02:31:22.733Z,78.44
2023-09-29T02:32:22.658Z,78.44
2023-09-29T02:33:22.682Z,78.44
2023-09-29T02:34:22.641Z,77.31
2023-09-29T02:35:22.661Z,77.01
2023-09-29T02:36:22.604Z,77.52
2023-09-29T02:37:22.608Z,77.31
2023-09-29T02:38:22.609Z,77.08
2023-09-29T02:39:22.578Z,77.48
2023-09-29T02:40:22.568Z,77.89
2023-09-29T02:41:22.555Z,77.69
2023-09-29T02:42:22.554Z,77.48
2023-09-29T02:43:22.543Z,78.03
2023-09-29T02:44:22.516Z,78.71
2023-09-29T02:45:22.521Z,79.87
2023-09-29T02:46:22.561Z,78.23
2023-09-29T02:47:22.522Z,78.13
2023-09-29T02:48:22.651Z,78.34
2023-09-29T02:49:22.460Z,78.54
2023-09-29T02:50:22.453Z,78.34
2023-09-29T02:51:22.450Z,79.05
2023-09-29T02:52:22.443Z,79.36
2023-09-29T02:53:22.430Z,78.23
2023-09-29T02:54:22.435Z,78.17
2023-09-29T02:55:22.399Z,78.68
2023-09-29T02:56:22.382Z,78.88
2023-09-29T02:57:22.502Z,77.93
2023-09-29T02:58:22.390Z,78.03
2023-09-29T02:59:22.352Z,77.83
2023-09-29T03:00:22.338Z,77.97
2023-09-29T03:01:22.375Z,77.93
2023-09-29T03:02:22.316Z,78.07
2023-09-29T03:03:22.489Z,77.72
2023-09-29T03:04:22.320Z,77.62
2023-09-29T03:05:22.667Z,78.03
2023-09-29T03:06:22.270Z,78.23
2023-09-29T03:07:22.264Z,78.44
2023-09-29T03:08:22.269Z,78.44
2023-09-29T03:09:22.247Z,77.31
2023-09-29T03:10:22.255Z,77.22
2023-09-29T03:11:22.227Z,77.52
2023-09-29T03:12:22.208Z,77.93
2023-09-29T03:13:22.215Z,78.23
2023-09-29T03:14:22.181Z,79.05
2023-09-29T03:15:22.193Z,78.27
2023-09-29T03:16:22.287Z,77.11
2023-09-29T03:17:22.191Z,77.72
2023-09-29T03:18:22.180Z,77.52
2023-09-29T03:19:22.131Z,76.87
2023-09-29T03:20:22.147Z,76.36
2023-09-29T03:21:22.122Z,76.87
2023-09-29T03:22:22.096Z,76.67
2023-09-29T03:23:22.088Z,76.56
2023-09-29T03:24:22.076Z,77.08
2023-09-29T03:25:22.228Z,76.97
2023-09-29T03:26:22.097Z,77.28
2023-09-29T03:27:22.081Z,76.70
2023-09-29T03:28:22.029Z,78.41
2023-09-29T03:29:22.023Z,77.93
2023-09-29T03:30:22.013Z,78.03
2023-09-29T03:31:22.014Z,77.48
2023-09-29T03:32:22.005Z,77.08
2023-09-29T03:33:22.139Z,78.30
2023-09-29T03:34:21.963Z,77.93
2023-09-29T03:35:21.955Z,78.23
2023-09-29T03:36:21.943Z,77.72
2023-09-29T03:37:21.949Z,77.62
2023-09-29T03:38:21.924Z,77.52
2023-09-29T03:39:21.913Z,77.11
2023-09-29T03:40:21.914Z,77.22
2023-09-29T03:41:21.889Z,77.18
2023-09-29T03:42:21.897Z,77.83
2023-09-29T03:43:21.889Z,77.62
2023-09-29T03:44:21.862Z,77.01
2023-09-29T03:45:21.867Z,77.22
2023-09-29T03:46:21.859Z,76.87
2023-09-29T03:47:21.826Z,77.18
2023-09-29T03:48:21.885Z,77.18
2023-09-29T03:49:21.821Z,76.97
2023-09-29T03:50:21.789Z,77.38
2023-09-29T03:51:21.780Z,77.48
2023-09-29T03:52:21.769Z,78.03
2023-09-29T03:53:21.754Z,78.44
2023-09-29T03:54:21.741Z,79.25
2023-09-29T03:55:21.767Z,79.87
2023-09-29T03:56:21.733Z,79.70
2023-09-29T03:57:21.717Z,79.77
2023-09-29T03:58:21.721Z,79.77
2023-09-29T03:59:21.697Z,79.91
2023-09-29T04:00:21.740Z,79.46
2023-09-29T04:01:21.726Z,78.68
2023-09-29T04:02:21.845Z,78.17
2023-09-29T04:03:21.745Z,79.16
2023-09-29T04:04:21.646Z,79.29
2023-09-29T04:05:21.657Z,78.88
2023-09-29T04:06:21.716Z,78.68
2023-09-29T04:07:21.593Z,79.29
2023-09-29T04:08:21.598Z,79.29
2023-09-29T04:09:21.579Z,79.05
2023-09-29T04:10:21.558Z,78.48
2023-09-29T04:11:21.559Z,78.27
2023-09-29T04:12:21.537Z,78.13
2023-09-29T04:13:21.540Z,78.03
2023-09-29T04:14:33.837Z,77.62
2023-09-29T04:15:22.620Z,77.97
2023-09-29T04:16:21.510Z,78.07
2023-09-29T04:17:21.482Z,77.31
2023-09-29T04:18:21.529Z,77.62
2023-09-29T04:19:21.467Z,77.31
2023-09-29T04:20:21.452Z,77.93
2023-09-29T04:21:21.460Z,78.13
2023-09-29T04:22:21.429Z,77.93
2023-09-29T04:23:21.413Z,77.66
2023-09-29T04:24:21.408Z,77.62
2023-09-29T04:25:21.393Z,77.04
2023-09-29T04:26:21.430Z,76.94
2023-09-29T04:27:21.378Z,77.72
2023-09-29T04:28:21.363Z,77.01
2023-09-29T04:29:21.349Z,77.42
2023-09-29T04:30:21.386Z,77.01
2023-09-29T04:31:21.334Z,76.90
2023-09-29T04:32:21.333Z,77.11
2023-09-29T04:33:21.360Z,77.22
2023-09-29T04:34:21.294Z,77.31
2023-09-29T04:35:21.312Z,76.94
2023-09-29T04:36:21.275Z,76.70
2023-09-29T04:37:21.285Z,76.40
2023-09-29T04:38:21.252Z,76.29
2023-09-29T04:39:21.246Z,77.22
2023-09-29T04:40:21.226Z,76.70
2023-09-29T04:41:21.231Z,75.85
2023-09-29T04:42:21.219Z,76.16
2023-09-29T04:43:21.206Z,76.50
2023-09-29T04:44:21.183Z,76.36
2023-09-29T04:45:21.225Z,76.77
2023-09-29T04:46:21.204Z,77.28
2023-09-29T04:47:21.174Z,77.01
2023-09-29T04:48:21.206Z,77.22
2023-09-29T04:49:21.139Z,77.83
2023-09-29T04:50:21.119Z,77.62
2023-09-29T04:51:21.115Z,78.17
2023-09-29T04:52:21.125Z,78.13
2023-09-29T04:53:21.080Z,77.86
2023-09-29T04:54:21.073Z,78.38
2023-09-29T04:55:21.069Z,78.23
2023-09-29T04:56:21.049Z,77.83
2023-09-29T04:57:21.043Z,78.23
2023-09-29T04:58:21.062Z,79.16
2023-09-29T04:59:21.025Z,78.54
2023-09-29T05:00:21.057Z,79.19
2023-09-29T05:01:21.009Z,79.91
2023-09-29T05:02:21.011Z,80.32
2023-09-29T05:03:21.092Z,80.42
2023-09-29T05:04:21.021Z,80.52
2023-09-29T05:05:20.970Z,79.19
2023-09-29T05:06:20.939Z,78.38
2023-09-29T05:07:20.926Z,78.38
2023-09-29T05:08:20.912Z,78.27
2023-09-29T05:09:20.920Z,77.72
2023-09-29T05:10:20.907Z,77.42
2023-09-29T05:11:20.879Z,77.01
2023-09-29T05:12:20.886Z,77.01
2023-09-29T05:13:20.877Z,77.52
2023-09-29T05:14:20.854Z,77.11
2023-09-29T05:15:20.847Z,77.93
2023-09-29T05:16:20.858Z,78.34
2023-09-29T05:17:20.824Z,79.05
2023-09-29T05:18:20.879Z,80.48
2023-09-29T05:19:20.901Z,79.46
2023-09-29T05:20:20.795Z,78.85
2023-09-29T05:21:20.788Z,79.46
2023-09-29T05:22:20.759Z,79.16
2023-09-29T05:23:20.762Z,78.78
2023-09-29T05:24:20.745Z,78.27
2023-09-29T05:25:20.746Z,79.09
2023-09-29T05:26:20.712Z,78.03
2023-09-29T05:27:20.708Z,77.72
2023-09-29T05:28:20.695Z,77.42
2023-09-29T05:29:20.697Z,77.31
2023-09-29T05:30:20.711Z,78.34
2023-09-29T05:31:20.659Z,77.89
2023-09-29T05:32:20.652Z,78.44
2023-09-29T05:33:20.694Z,79.16
2023-09-29T05:34:20.680Z,79.60
2023-09-29T05:35:20.620Z,79.39
2023-09-29T05:36:20.606Z,79.39
2023-09-29T05:37:20.592Z,79.39
2023-09-29T05:38:20.588Z,79.91
2023-09-29T05:39:20.574Z,79.36
2023-09-29T05:40:20.576Z,80.73
2023-09-29T05:41:20.547Z,80.73
2023-09-29T05:42:20.648Z,79.80
2023-09-29T05:43:20.536Z,79.09
2023-09-29T05:44:20.555Z,78.34
2023-09-29T05:45:20.534Z,78.03
2023-09-29T05:46:20.553Z,78.41
2023-09-29T05:47:20.532Z,77.89
2023-09-29T05:48:20.529Z,78.00
2023-09-29T05:49:20.463Z,78.00
2023-09-29T05:50:20.538Z,78.20
2023-09-29T05:51:20.466Z,78.81
2023-09-29T05:52:20.441Z,77.96
2023-09-29T05:53:20.413Z,77.59
2023-09-29T05:54:20.401Z,78.20
2023-09-29T05:55:20.391Z,79.93
2023-09-29T05:56:20.398Z,79.12
2023-09-29T05:57:20.384Z,79.87
2023-09-29T05:58:20.361Z,79.02
2023-09-29T05:59:20.365Z,79.73
2023-09-29T06:00:20.356Z,79.57
2023-09-29T06:01:20.355Z,79.66
2023-09-29T06:02:20.344Z,80.79
2023-09-29T06:03:20.388Z,80.85
2023-09-29T06:04:20.416Z,80.85
2023-09-29T06:05:20.276Z,80.10
2023-09-29T06:06:20.290Z,80.41
2023-09-29T06:07:20.278Z,80.91
2023-09-29T06:08:20.246Z,81.23
2023-09-29T06:09:20.273Z,80.96
2023-09-29T06:10:20.242Z,81.12
2023-09-29T06:11:20.211Z,80.71
2023-09-29T06:12:20.200Z,80.85
2023-09-29T06:13:20.187Z,80.55
2023-09-29T06:14:20.178Z,80.71
2023-09-29T06:15:20.180Z,81.53
2023-09-29T06:16:20.300Z,80.91
2023-09-29T06:17:20.144Z,80.10
2023-09-29T06:18:20.185Z,79.39
2023-09-29T06:19:20.171Z,79.28
2023-09-29T06:20:20.330Z,78.77
2023-09-29T06:21:20.153Z,78.06
2023-09-29T06:22:20.117Z,79.39
2023-09-29T06:23:20.077Z,79.45
2023-09-29T06:24:20.137Z,80.91
2023-09-29T06:25:20.060Z,80.78
2023-09-29T06:26:20.064Z,81.02
2023-09-29T06:27:20.106Z,79.39
2023-09-29T06:28:20.030Z,78.33
2023-09-29T06:29:20.021Z,78.53
2023-09-29T06:30:20.027Z,78.74
2023-09-29T06:31:19.993Z,77.82
2023-09-29T06:32:19.996Z,77.00
2023-09-29T06:33:20.071Z,77.51
2023-09-29T06:34:20.077Z,79.32
2023-09-29T06:35:19.970Z,76.87
2023-09-29T06:36:19.936Z,79.14
2023-09-29T06:37:19.930Z,76.25
2023-09-29T06:38:19.934Z,74.79
2023-09-29T06:39:19.904Z,74.35
2023-09-29T06:40:19.897Z,74.35
2023-09-29T06:41:19.899Z,74.31
2023-09-29T06:42:19.873Z,72.82
2023-09-29T06:43:19.872Z,72.17
2023-09-29T06:44:19.857Z,70.62
2023-09-29T06:45:19.845Z,71.84
2023-09-29T06:46:19.875Z,71.70
2023-09-29T06:47:19.812Z,72.08
2023-09-29T06:48:20.996Z,70.72
2023-09-29T06:49:19.797Z,69.88
2023-09-29T06:50:19.785Z,69.88
2023-09-29T06:51:19.789Z,69.85
2023-09-29T06:52:19.764Z,68.77
2023-09-29T06:53:19.769Z,67.35
2023-09-29T06:54:19.857Z,67.25
2023-09-29T06:55:19.751Z,69.74
2023-09-29T06:56:19.719Z,69.20
2023-09-29T06:57:19.788Z,69.20
2023-09-29T06:58:19.703Z,69.00
2023-09-29T06:59:19.687Z,69.07
2023-09-29T07:00:19.744Z,67.38
2023-09-29T07:01:19.672Z,67.14
2023-09-29T07:02:19.657Z,67.22
2023-09-29T07:03:19.786Z,65.67
2023-09-29T07:04:19.823Z,67.25
2023-09-29T07:05:19.618Z,68.43
2023-09-29T07:06:19.656Z,67.52
2023-09-29T07:07:19.598Z,67.22
2023-09-29T07:08:19.586Z,65.19
2023-09-29T07:09:19.640Z,66.67
2023-09-29T07:10:19.611Z,67.69
2023-09-29T07:11:19.571Z,67.12
2023-09-29T07:12:19.545Z,68.37
2023-09-29T07:13:19.532Z,66.96
2023-09-29T07:14:19.522Z,66.65
2023-09-29T07:15:19.519Z,65.75
2023-09-29T07:16:19.638Z,66.96
2023-09-29T07:17:19.520Z,66.32
2023-09-29T07:18:19.523Z,63.45
2023-09-29T07:19:19.469Z,66.75
2023-09-29T07:20:19.454Z,66.75
2023-09-29T07:21:19.453Z,67.22
2023-09-29T07:22:19.452Z,66.96
2023-09-29T07:23:19.433Z,66.02
2023-09-29T07:24:19.452Z,64.90
2023-09-29T07:25:19.405Z,65.14
2023-09-29T07:26:19.421Z,64.23
2023-09-29T07:27:20.338Z,67.19
2023-09-29T07:28:19.375Z,67.39
2023-09-29T07:29:19.356Z,67.52
2023-09-29T07:30:19.408Z,66.61
2023-09-29T07:31:19.362Z,66.04
2023-09-29T07:32:19.348Z,67.05
2023-09-29T07:33:19.576Z,69.14
2023-09-29T07:34:19.307Z,67.09
2023-09-29T07:35:19.294Z,65.47
2023-09-29T07:36:19.358Z,65.17
2023-09-29T07:37:19.271Z,66.78
2023-09-29T07:38:19.636Z,66.21
2023-09-29T07:39:19.443Z,67.25
2023-09-29T07:40:19.249Z,68.33
2023-09-29T07:41:19.240Z,67.26
2023-09-29T07:42:19.245Z,66.52
2023-09-29T07:43:19.232Z,65.64
2023-09-29T07:44:19.195Z,64.97
2023-09-29T07:45:19.189Z,65.27
2023-09-29T07:46:19.229Z,66.89
2023-09-29T07:47:19.169Z,69.28
2023-09-29T07:48:19.262Z,67.97
2023-09-29T07:49:19.254Z,67.73
2023-09-29T07:50:19.143Z,68.01
2023-09-29T07:51:19.156Z,66.79
2023-09-29T07:52:19.109Z,66.76
2023-09-29T07:53:19.099Z,67.03
2023-09-29T07:54:19.092Z,66.70
2023-09-29T07:55:19.101Z,62.46
2023-09-29T07:56:19.068Z,62.60
2023-09-29T07:57:19.059Z,63.10
2023-09-29T07:58:19.074Z,64.18
2023-09-29T07:59:19.031Z,67.24
2023-09-29T08:00:19.044Z,67.07
2023-09-29T08:01:19.068Z,62.81
2023-09-29T08:02:19.001Z,63.89
2023-09-29T08:03:19.155Z,62.10
2023-09-29T08:04:19.264Z,63.85
2023-09-29T08:05:18.966Z,62.92
2023-09-29T08:06:19.159Z,60.91
2023-09-29T08:07:18.950Z,60.27
2023-09-29T08:08:18.936Z,62.85
2023-09-29T08:09:18.969Z,63.45
2023-09-29T08:10:18.908Z,61.85
2023-09-29T08:11:18.893Z,60.31
2023-09-29T08:12:18.915Z,63.82
2023-09-29T08:13:18.876Z,66.64
2023-09-29T08:14:18.900Z,67.74
2023-09-29T08:15:18.871Z,67.58
2023-09-29T08:16:18.871Z,66.88
2023-09-29T08:17:18.839Z,65.47
2023-09-29T08:18:18.895Z,66.88
2023-09-29T08:19:18.811Z,67.65
2023-09-29T08:20:18.904Z,64.47
2023-09-29T08:21:18.813Z,65.88
2023-09-29T08:22:26.619Z,65.00
2023-09-29T08:23:19.761Z,64.53
2023-09-29T08:24:18.794Z,69.15
2023-09-29T08:25:18.751Z,66.44
2023-09-29T08:26:18.854Z,65.77
2023-09-29T08:27:18.767Z,64.46
2023-09-29T08:28:18.714Z,66.94
2023-09-29T08:29:18.705Z,65.13
2023-09-29T08:30:19.046Z,63.65
2023-09-29T08:31:18.763Z,66.37
2023-09-29T08:32:18.705Z,67.07
2023-09-29T08:33:32.748Z,64.53
2023-09-29T08:34:19.695Z,63.53
2023-09-29T08:35:18.642Z,63.70
2023-09-29T08:36:18.674Z,63.17
2023-09-29T08:37:18.626Z,62.63
2023-09-29T08:38:18.626Z,64.40
2023-09-29T08:39:18.644Z,61.88
2023-09-29T08:40:18.592Z,62.92
2023-09-29T08:41:18.582Z,64.53
2023-09-29T08:42:18.629Z,64.56
2023-09-29T08:43:18.564Z,63.05
2023-09-29T08:44:18.542Z,63.82
2023-09-29T08:45:18.632Z,62.55
2023-09-29T08:46:18.590Z,63.42
2023-09-29T08:47:18.516Z,66.58
2023-09-29T08:48:18.615Z,64.74
2023-09-29T08:49:18.488Z,66.47
2023-09-29T08:50:18.483Z,66.28
2023-09-29T08:51:18.479Z,64.60
2023-09-29T08:52:18.461Z,64.47
2023-09-29T08:53:18.460Z,66.35
2023-09-29T08:54:18.501Z,67.08
2023-09-29T08:55:18.427Z,64.83
2023-09-29T08:56:18.416Z,64.23
2023-09-29T08:57:18.465Z,64.73
2023-09-29T08:58:18.414Z,66.31
2023-09-29T08:59:18.387Z,66.17
2023-09-29T09:00:18.462Z,66.03
2023-09-29T09:01:18.803Z,67.27
2023-09-29T09:02:18.372Z,63.93
2023-09-29T09:03:18.496Z,63.96
2023-09-29T09:04:18.506Z,64.54
2023-09-29T09:05:18.335Z,66.85
2023-09-29T09:06:18.376Z,63.70
2023-09-29T09:07:18.293Z,62.96
2023-09-29T09:08:18.294Z,65.10
2023-09-29T09:09:18.319Z,66.11
2023-09-29T09:10:30.831Z,66.67
2023-09-29T09:11:19.279Z,64.54
2023-09-29T09:12:18.274Z,61.93
2023-09-29T09:13:18.230Z,66.38
2023-09-29T09:14:18.230Z,63.06
2023-09-29T09:15:18.239Z,65.88
2023-09-29T09:16:18.241Z,64.84
2023-09-29T09:17:18.206Z,63.10
2023-09-29T09:18:18.262Z,65.34
2023-09-29T09:19:18.188Z,64.43
2023-09-29T09:20:18.156Z,63.20
2023-09-29T09:21:18.186Z,65.78
2023-09-29T09:22:21.215Z,63.79
2023-09-29T09:23:19.123Z,62.53
2023-09-29T09:24:18.147Z,63.36
2023-09-29T09:25:18.101Z,63.26
2023-09-29T09:26:18.104Z,67.05
2023-09-29T09:27:18.097Z,63.70
2023-09-29T09:28:18.082Z,63.10
2023-09-29T09:29:18.129Z,63.53
2023-09-29T09:30:18.054Z,66.75
2023-09-29T09:31:18.127Z,66.38
2023-09-29T09:32:18.027Z,64.74
2023-09-29T09:33:18.149Z,63.47
2023-09-29T09:34:18.044Z,67.02
2023-09-29T09:35:17.997Z,67.05
2023-09-29T09:36:18.019Z,64.72
2023-09-29T09:37:17.972Z,64.01
2023-09-29T09:38:17.976Z,62.71
2023-09-29T09:39:18.106Z,64.25
2023-09-29T09:40:17.937Z,63.42
2023-09-29T09:41:17.935Z,61.84
2023-09-29T09:42:17.955Z,61.90
2023-09-29T09:43:17.927Z,62.90
2023-09-29T09:44:17.892Z,63.64
2023-09-29T09:45:17.969Z,60.27
2023-09-29T09:46:17.981Z,61.44
2023-09-29T09:47:17.861Z,61.47
2023-09-29T09:48:18.056Z,62.87
2023-09-29T09:49:17.841Z,64.42
2023-09-29T09:50:17.861Z,61.81
2023-09-29T09:51:17.902Z,62.31
2023-09-29T09:52:17.822Z,63.11
2023-09-29T09:53:17.813Z,64.86
2023-09-29T09:54:17.817Z,61.08
2023-09-29T09:55:17.774Z,62.78
2023-09-29T09:56:17.760Z,61.28
2023-09-29T09:57:17.825Z,60.68
2023-09-29T09:58:17.770Z,61.58
2023-09-29T09:59:17.752Z,57.75
2023-09-29T10:00:17.779Z,58.65
2023-09-29T10:01:17.747Z,58.55
2023-09-29T10:02:17.696Z,57.78
2023-09-29T10:03:18.045Z,59.15
2023-09-29T10:04:17.778Z,59.02
2023-09-29T10:05:17.716Z,58.75
2023-09-29T10:06:17.716Z,58.48
2023-09-29T10:07:17.642Z,58.58
2023-09-29T10:08:17.634Z,60.18
2023-09-29T10:09:17.651Z,63.15
2023-09-29T10:10:17.629Z,61.48
2023-09-29T10:11:17.609Z,61.02
2023-09-29T10:12:17.704Z,60.82
2023-09-29T10:13:17.576Z,61.22
2023-09-29T10:14:17.569Z,60.25
2023-09-29T10:15:17.603Z,60.91
2023-09-29T10:16:17.609Z,62.61
2023-09-29T10:17:17.535Z,61.64
2023-09-29T10:18:17.658Z,62.61
2023-09-29T10:19:17.514Z,60.36
2023-09-29T10:20:17.504Z,62.20
2023-09-29T10:21:17.524Z,61.72
2023-09-29T10:22:17.520Z,66.91
2023-09-29T10:23:17.466Z,64.40
2023-09-29T10:24:17.480Z,62.90
2023-09-29T10:25:17.454Z,64.58
2023-09-29T10:26:17.546Z,66.15
2023-09-29T10:27:17.450Z,63.92
2023-09-29T10:28:17.413Z,64.12
2023-09-29T10:29:17.405Z,63.98
2023-09-29T10:30:17.669Z,62.30
2023-09-29T10:31:17.447Z,64.43
2023-09-29T10:32:17.392Z,64.64
2023-09-29T10:33:17.434Z,62.33
2023-09-29T10:34:17.349Z,64.81
2023-09-29T10:35:17.388Z,63.24
2023-09-29T10:36:17.349Z,60.10
2023-09-29T10:37:17.338Z,61.30
2023-09-29T10:38:17.336Z,61.02
2023-09-29T10:39:17.336Z,63.03
2023-09-29T10:40:17.294Z,62.30
2023-09-29T10:41:33.476Z,62.17
2023-09-29T10:42:18.355Z,61.94
2023-09-29T10:43:17.250Z,59.61
2023-09-29T10:44:17.236Z,59.18
2023-09-29T10:45:17.286Z,59.38
2023-09-29T10:46:17.244Z,60.38
2023-09-29T10:47:17.224Z,57.00
2023-09-29T10:48:17.354Z,59.78
2023-09-29T10:49:17.242Z,61.58
2023-09-29T10:50:17.173Z,61.45
2023-09-29T10:51:17.202Z,58.37
2023-09-29T10:52:17.167Z,57.70
2023-09-29T10:53:17.151Z,56.30
2023-09-29T10:54:17.232Z,58.65
2023-09-29T10:55:17.174Z,57.82
2023-09-29T10:56:17.120Z,57.62
2023-09-29T10:57:17.133Z,57.82
2023-09-29T10:58:17.085Z,56.52
2023-09-29T10:59:17.094Z,61.69
2023-09-29T11:00:17.090Z,56.96
2023-09-29T11:01:17.070Z,56.57
2023-09-29T11:02:17.045Z,56.96
2023-09-29T11:03:17.149Z,56.15
2023-09-29T11:04:17.082Z,59.32
2023-09-29T11:05:17.034Z,61.07
2023-09-29T11:06:17.026Z,59.23
2023-09-29T11:07:17.041Z,56.37
2023-09-29T11:08:16.990Z,58.47
2023-09-29T11:09:17.057Z,59.36
2023-09-29T11:10:16.980Z,60.14
2023-09-29T11:11:16.948Z,59.41
2023-09-29T11:12:16.982Z,59.28
2023-09-29T11:13:16.924Z,58.42
2023-09-29T11:14:17.037Z,57.73
2023-09-29T11:15:16.988Z,56.68
2023-09-29T11:16:17.028Z,56.27
2023-09-29T11:17:16.877Z,56.08
2023-09-29T11:18:16.940Z,53.84
2023-09-29T11:19:16.913Z,55.76
2023-09-29T11:20:16.848Z,55.66
2023-09-29T11:21:16.911Z,55.81
2023-09-29T11:22:16.848Z,57.95
2023-09-29T11:23:16.812Z,57.26
2023-09-29T11:24:16.822Z,55.41
2023-09-29T11:25:16.801Z,55.71
2023-09-29T11:26:16.802Z,57.11
2023-09-29T11:27:16.863Z,55.17
2023-09-29T11:28:16.759Z,56.22
2023-09-29T11:29:16.745Z,60.99
2023-09-29T11:30:16.767Z,58.06
2023-09-29T11:31:16.893Z,60.39
2023-09-29T11:32:16.720Z,57.54
2023-09-29T11:33:16.835Z,58.51
2023-09-29T11:34:16.705Z,56.41
2023-09-29T11:35:16.696Z,58.24
2023-09-29T11:36:16.751Z,58.24
2023-09-29T11:37:16.690Z,58.04
2023-09-29T11:38:16.657Z,60.14
2023-09-29T11:39:16.703Z,60.14
2023-09-29T11:40:16.646Z,57.98
2023-09-29T11:41:16.638Z,58.08
2023-09-29T11:42:16.681Z,57.18
2023-09-29T11:43:16.607Z,58.11
2023-09-29T11:44:16.604Z,59.41
2023-09-29T11:45:16.628Z,61.04
2023-09-29T11:46:16.611Z,60.08
2023-09-29T11:47:16.572Z,61.35
2023-09-29T11:48:16.604Z,57.06
2023-09-29T11:49:16.555Z,56.31
2023-09-29T11:50:16.534Z,60.08
2023-09-29T11:51:16.564Z,58.58
2023-09-29T11:52:16.566Z,57.28
2023-09-29T11:53:16.530Z,62.24
2023-09-29T11:54:16.525Z,57.53
2023-09-29T11:55:16.493Z,59.45
2023-09-29T11:56:16.468Z,57.53
2023-09-29T11:57:16.518Z,58.40
2023-09-29T11:58:16.504Z,60.26
2023-09-29T11:59:16.453Z,55.08
2023-09-29T12:00:16.488Z,60.96
2023-09-29T12:01:16.557Z,58.64
2023-09-29T12:02:16.410Z,55.18
2023-09-29T12:03:16.462Z,57.77
2023-09-29T12:04:16.500Z,56.57
2023-09-29T12:05:16.377Z,56.87
2023-09-29T12:06:16.381Z,55.78
2023-09-29T12:07:16.369Z,55.11
2023-09-29T12:08:16.354Z,56.01
2023-09-29T12:09:16.357Z,59.19
2023-09-29T12:10:16.330Z,53.41
2023-09-29T12:11:16.315Z,57.28
2023-09-29T12:12:16.335Z,56.55
2023-09-29T12:13:16.321Z,56.45
2023-09-29T12:14:16.309Z,54.83
2023-09-29T12:15:16.360Z,55.55
2023-09-29T12:16:16.435Z,59.11
2023-09-29T12:17:16.244Z,55.95
2023-09-29T12:18:16.327Z,57.07
2023-09-29T12:19:16.223Z,59.74
2023-09-29T12:20:16.225Z,57.05
2023-09-29T12:21:16.217Z,58.04
2023-09-29T12:22:16.201Z,55.08
2023-09-29T12:23:16.184Z,56.38
2023-09-29T12:24:16.429Z,55.54
2023-09-29T12:25:16.169Z,57.13
2023-09-29T12:26:16.163Z,57.40
2023-09-29T12:27:16.214Z,59.09
2023-09-29T12:28:16.200Z,58.84
2023-09-29T12:29:16.112Z,59.04
2023-09-29T12:30:16.189Z,59.36
2023-09-29T12:31:16.107Z,57.30
2023-09-29T12:32:16.153Z,59.56
2023-09-29T12:33:17.190Z,59.30
2023-09-29T12:34:16.054Z,56.81
2023-09-29T12:35:16.083Z,58.20
2023-09-29T12:36:16.101Z,59.09
2023-09-29T12:37:16.018Z,58.67
2023-09-29T12:38:16.024Z,55.18
2023-09-29T12:39:16.100Z,57.54
2023-09-29T12:40:15.988Z,61.50
2023-09-29T12:41:15.978Z,56.48
2023-09-29T12:42:16.102Z,59.05
2023-09-29T12:43:15.954Z,59.15
2023-09-29T12:44:15.944Z,60.38
2023-09-29T12:45:16.022Z,59.15
2023-09-29T12:46:16.028Z,60.08
2023-09-29T12:47:15.917Z,61.15
2023-09-29T12:48:16.006Z,60.22
2023-09-29T12:49:15.881Z,58.06
2023-09-29T12:50:15.873Z,57.86
2023-09-29T12:51:20.126Z,58.88
2023-09-29T12:52:16.908Z,58.41